x

Santa Monica Basin - 33nm Wsw Of Santa Monica, Ca (46025) Wave Buoy

8:50 - Tue 3rd Mar 2015 All times are PST. -8 hours from GMT.

  • Sig Wave height 2.6ft
  • Swell Direction
  • Peak Period 19s
  • Average Period 5s
  • Wind
    7mph, 9mph gusts
  • Sea Temp 62°f
  • Luft Temp 57°f
  • Sea Pressure 1015.2mb
  • Santa Monica Basin - 33nm Wsw Of Santa Monica, Ca
  • Santa Monica Basin - 33nm Wsw Of Santa Monica, Ca

More Historic Weather Station data

Upgrade to MSW Pro to gain access to the past 30 days of data for over 8000 Wavebouys and Weather Stations around the globe.

Join Pro

Comparision Forecast

View Surf forecast
   
Di 03/03 8:50 2.5ft 19s 5s 7 9 mph 1015.2mb 62f 57f
7:50 2.5ft 19s 5s 9 13 mph 1014.5mb 62f 57f
6:50 2.5ft 10s 5s 11 13 mph 1013.8mb 62f 56f
5:50 2.5ft 4s 4s 11 13 mph 1013.6mb 62f 56f
4:50 2.5ft 19s 5s 11 13 mph 1013.6mb 62f 56f
3:50 2.5ft 4s 4s 16 18 mph 1013.3mb 62f 57f
2:50 2.5ft 4s 4s 13 16 mph 1013.7mb 62f 56f
1:50 2.5ft 14s 4s 18 20 mph 1014.2mb 62f 57f
12:50 2ft 14s 6s 18 20 mph 1014.3mb 62f 56f
Mo 03/02 11:50 2ft 21s 7s 7 9 mph 1014.6mb 62f 58f
10:50 2ft 15s 7s 4 7 mph 1014.8mb 62f 57f
9:50 2ft 11s 6s 7 9 mph 1014.6mb 62f 57f
8:50 2ft 12s 6s 4 7 mph 1014.4mb 62f 57f
7:50 2.5ft 15s 5s 4 7 mph 1013.9mb 62f 57f
6:50 2.5ft 15s 5s 2
mph
1013.7mb 62f 56f
5:50 2.5ft 12s 5s 4 7 mph 1013.5mb 62f 57f
4:50 2.5ft 15s 6s 7 9 mph 1013.2mb 62f 57f
3:50 2.5ft 15s 6s 7 9 mph 1012.9mb 63f 58f
2:50 2.5ft 11s 7s 2
mph
1012.8mb 63f 56f
1:50 2.5ft 10s 6s 2 7 mph 1012.8mb 63f 57f
12:50 2.5ft 12s 6s 4 7 mph 1013.2mb 63f 57f
11:50 2.5ft 12s 7s 7 9 mph 1013.7mb 62f 56f
10:50 2.5ft 11s 6s 7 9 mph 1013.6mb 62f 56f
9:50 2.5ft 10s 6s 2 4 mph 1013.5mb 62f 57f
8:50 2.5ft 8s 5s 7 9 mph 1013.2mb 62f 56f
7:50 2.5ft 12s 6s 11 13 mph 1012.8mb 62f 54f
6:50 2.5ft 10s 6s 4 7 mph 1012.5mb 62f 55f
5:50 2.5ft 15s 6s 4 7 mph 1012.2mb 62f 55f
4:50 2.5ft 13s 5s 7 9 mph 1012.1mb 62f 55f
3:50 2.5ft 13s 6s 9 11 mph 1012.1mb 62f 55f
2:50 3ft 12s 6s 4 7 mph 1012.5mb 62f 56f
1:50 2.5ft 11s 6s 7 9 mph 1013.2mb 62f 56f
12:50 2.5ft 12s 6s 4 7 mph 1013.6mb 62f 56f
So 03/01 11:50 2.5ft 13s 6s 4 7 mph 1013.8mb 62f 56f
10:50 2.5ft 13s 5s 9 11 mph 1013.9mb 62f 56f
9:50 2.5ft 12s 6s 11 13 mph 1014.1mb 62f 55f
8:50 2.5ft 13s 6s 11 13 mph 1014.1mb 62f 54f
7:50 2.5ft 13s 5s 9 11 mph 1013.7mb 62f 56f
6:50 2.5ft 13s 6s 9 11 mph 1013.3mb 62f 57f
5:50 2.5ft 13s 7s 2 4 mph 1012.9mb 62f 58f
4:50 2.5ft 12s 7s 2 4 mph 1012.6mb 62f 60f
3:50 2.5ft 14s 7s 7 9 mph 1012.5mb 62f 59f
2:50 2.5ft 14s 7s 7 9 mph 1012.4mb 62f 58f
1:50 2.5ft 13s 6s 9
mph
1012.7mb 62f 58f
12:50 2.5ft 14s 6s 7 9 mph 1013.4mb 62f 58f
11:50 2.5ft 14s 5s 9 11 mph 1013.7mb 62f 57f
10:50 2.5ft 14s 5s 11 13 mph 1014.1mb 62f 57f
9:50 2.5ft 13s 5s 13 16 mph 1014mb 62f 57f
8:50 2.5ft 14s 5s 16 18 mph 1013.9mb 62f 56f
7:50 3ft 14s 5s 13 18 mph 1013.4mb 62f 56f
6:50 2.5ft 10s 5s 13 16 mph 1013.3mb 62f 55f
5:50 2.5ft 14s 5s 13 16 mph 1012.9mb 62f 56f
4:50 2.5ft 14s 5s 11 13 mph 1012.6mb 62f 56f
3:50 2.5ft 14s 6s 13 16 mph 1012.5mb 62f 55f
2:50 2.5ft 14s 7s 4 7 mph 1012.8mb 62f 57f
1:50 2.5ft 14s 6s 2 4 mph 1012.9mb 62f 57f
12:50 2.5ft 13s 6s 4 7 mph 1013mb 62f 57f
Sa 02/28 11:50 2.5ft 14s 6s 4 7 mph 1013mb 62f 57f
10:50 2.5ft 14s 6s 4 9 mph 1012.8mb 62f 57f
9:50 2.5ft 14s 6s 4 7 mph 1012.5mb 62f 57f
8:50 2.5ft 14s 5s 4 7 mph 1012.2mb 62f 57f
7:50 2.5ft 14s 5s 7 9 mph 1012mb 62f 57f
6:50 2.5ft 14s 5s 9 11 mph 1011.6mb 62f 58f
5:50 2.5ft 14s 5s 11 13 mph 1011.2mb 62f 58f
4:50 3ft 14s 5s 13 16 mph 1010.8mb 62f 58f
3:50 3ft 15s 4s 16 18 mph 1010.7mb 62f 58f
2:50 3ft 14s 5s 13 16 mph 1010.6mb 62f 58f
1:50 3ft 14s 5s 13 18 mph 1010.7mb 62f 58f
12:50 3.5ft 14s 5s 13 18 mph 1011.3mb 62f 57f
11:50 3.5ft 5s 5s 16 20 mph 1011.8mb 62f 58f
10:50 4ft 5s 5s 16 20 mph 1011.9mb 62f 57f
9:50 4.5ft 5s 5s 18 20 mph 1011.5mb 62f 57f
8:50 4ft 5s 5s 18 22 mph 1011mb 62f 57f
7:50 5ft 5s 5s 20 25 mph 1010mb 62f 57f
6:50 5ft 6s 5s 25 29 mph 1008.8mb 62f 57f
5:50 5.5ft 6s 5s 20 25 mph 1008.4mb 62f 58f
4:50 6ft 6s 5s 22 29 mph 1008.1mb 62f 58f
3:50 7ft 6s 5s 25 29 mph 1007.6mb 62f 58f
2:50 6.5ft 6s 5s 27 34 mph 1007.8mb 62f 58f
1:50 8ft 7s 5s 25 31 mph 1008.3mb 62f 58f
12:50 7.5ft 6s 5s 29 34 mph 1007.9mb 62f 58f
Fr 02/27 11:50  -   -   -  27 34 mph 1007.5mb 62f 58f
10:50 7ft 6s 5s 27 31 mph 1007.6mb 62f 59f
9:50 6.5ft 6s 5s 25 29 mph 1008.1mb 62f 59f
8:50 6.5ft 7s 5s 25 31 mph 1007.6mb 63f 60f
7:50  -   -   -  22 27 mph 1007.3mb 63f 60f
6:50 5ft 7s 5s 18 20 mph 1007.3mb 63f 60f